Time;durP1;ratioP1;P1;durP2;ratioP2;P2;SDS_P1;SDS_P2;PMS_P1;PMS_P2;Temp;Humidity;BMP_temperature;BMP_pressure;BME280_temperature;BME280_humidity;BME280_pressure;Samples;Min_cycle;Max_cycle;Signal;HPM_P1;HPM_P2
2022/11/25 00:01:32;;;;;;;1.10;0.70;;;1.70;99.90;;;;;;5091106;28;20464;-48
2022/11/25 00:04:00;;;;;;;2.30;1.17;;;1.50;99.90;;;;;;5090622;28;20525;-47
2022/11/25 00:06:29;;;;;;;2.17;1.47;;;1.40;99.90;;;;;;5093018;28;20442;-48
2022/11/25 00:08:57;;;;;;;1.90;1.13;;;1.40;99.90;;;;;;5094894;28;20531;-47
2022/11/25 00:11:26;;;;;;;1.30;0.80;;;1.30;99.90;;;;;;5094396;28;20471;-47
2022/11/25 00:13:53;;;;;;;1.20;0.60;;;1.20;99.90;;;;;;5094623;28;20432;-47
2022/11/25 00:16:21;;;;;;;1.30;0.80;;;1.40;99.90;;;;;;5094490;28;20874;-47
2022/11/25 00:18:50;;;;;;;1.00;0.70;;;1.60;99.90;;;;;;5094565;28;20431;-49
2022/11/25 00:21:19;;;;;;;0.80;0.40;;;1.80;99.90;;;;;;5094446;28;20500;-48
2022/11/25 00:23:50;;;;;;;1.27;0.83;;;1.60;99.90;;;;;;5094031;28;20450;-47
2022/11/25 00:26:17;;;;;;;0.97;0.60;;;1.70;99.90;;;;;;5093888;28;20439;-48
2022/11/25 00:28:46;;;;;;;3.13;2.53;;;1.60;99.90;;;;;;5094073;28;20448;-50
2022/11/25 00:31:15;;;;;;;3.63;2.20;;;1.50;99.90;;;;;;5093848;28;20489;-47
2022/11/25 00:33:43;;;;;;;2.10;1.63;;;1.40;99.90;;;;;;5093799;28;20526;-47
2022/11/25 00:36:16;;;;;;;2.40;0.93;;;1.50;99.90;;;;;;5093854;28;20526;-47
2022/11/25 00:38:43;;;;;;;1.30;0.60;;;1.50;99.90;;;;;;5094313;28;20447;-50
2022/11/25 00:46:41;;;;;;;1.83;0.67;;;1.70;99.90;;;;;;5093841;28;20500;-47
2022/11/25 00:49:08;;;;;;;1.00;0.73;;;1.60;99.90;;;;;;5094039;28;20515;-47
2022/11/25 00:51:35;;;;;;;1.30;0.70;;;1.40;99.90;;;;;;5093721;28;20546;-50
2022/11/25 00:54:02;;;;;;;1.00;0.60;;;1.20;99.90;;;;;;5093358;28;20444;-49
2022/11/25 00:56:29;;;;;;;0.90;0.50;;;1.20;99.90;;;;;;5093622;28;20535;-49
2022/11/25 00:58:57;;;;;;;1.33;0.60;;;1.30;99.90;;;;;;5093657;28;20866;-48
2022/11/25 01:01:25;;;;;;;0.80;0.40;;;1.40;99.90;;;;;;5093614;28;20490;-47
2022/11/25 01:03:52;;;;;;;0.80;0.50;;;1.40;99.90;;;;;;5093295;28;20493;-48
2022/11/25 01:06:19;;;;;;;1.03;0.70;;;1.60;99.90;;;;;;5093694;28;20437;-48
2022/11/25 01:08:47;;;;;;;0.83;0.50;;;1.60;99.90;;;;;;5093236;28;20967;-47
2022/11/25 01:11:15;;;;;;;2.00;1.70;;;1.60;99.90;;;;;;5093031;28;20467;-48
2022/11/25 01:13:42;;;;;;;2.20;1.87;;;1.50;99.90;;;;;;5092914;28;20448;-48
2022/11/25 01:16:13;;;;;;;1.50;1.30;;;1.50;99.90;;;;;;5093594;28;21020;-49
2022/11/25 01:18:40;;;;;;;1.77;1.20;;;1.50;99.90;;;;;;5092351;28;20520;-47
2022/11/25 01:21:08;;;;;;;1.57;0.67;;;1.30;99.90;;;;;;5093163;28;20464;-47
2022/11/25 01:23:35;;;;;;;1.83;0.90;;;1.50;99.90;;;;;;5092869;28;20530;-48
2022/11/25 01:26:02;;;;;;;1.33;0.70;;;1.60;99.90;;;;;;5092640;28;20526;-48
2022/11/25 01:28:30;;;;;;;1.93;0.97;;;1.60;99.90;;;;;;5093155;28;20440;-47
2022/11/25 01:31:01;;;;;;;0.80;0.60;;;1.70;99.90;;;;;;5092751;28;20558;-47
2022/11/25 01:33:31;;;;;;;1.03;0.50;;;1.80;99.90;;;;;;5092647;28;20521;-50
2022/11/25 01:36:01;;;;;;;1.10;0.67;;;1.60;99.90;;;;;;5092766;28;20479;-48
2022/11/25 01:38:28;;;;;;;0.90;0.50;;;1.80;99.90;;;;;;5092943;28;20451;-48
2022/11/25 01:40:55;;;;;;;1.00;0.67;;;1.90;99.90;;;;;;5092725;28;20459;-49
2022/11/25 01:43:21;;;;;;;1.23;0.60;;;1.80;99.90;;;;;;5092459;28;20441;-47
2022/11/25 01:45:48;;;;;;;1.20;0.67;;;1.90;99.90;;;;;;5092511;28;20531;-47
2022/11/25 01:48:22;;;;;;;1.03;0.73;;;2.00;99.90;;;;;;5092443;28;20932;-48
2022/11/25 01:50:50;;;;;;;1.27;0.57;;;2.00;99.90;;;;;;5092524;28;20464;-48
2022/11/25 01:53:19;;;;;;;0.80;0.40;;;2.00;99.90;;;;;;5092201;28;20444;-46
2022/11/25 01:55:52;;;;;;;1.30;0.77;;;2.00;99.90;;;;;;5092349;28;21018;-49
2022/11/25 01:58:22;;;;;;;1.10;0.70;;;1.80;99.90;;;;;;5092497;28;20497;-48
2022/11/25 02:00:51;;;;;;;0.90;0.50;;;1.60;99.90;;;;;;5092275;28;20521;-48
2022/11/25 02:03:22;;;;;;;0.90;0.57;;;1.50;99.90;;;;;;5091989;28;20476;-48
2022/11/25 02:05:56;;;;;;;1.60;0.60;;;1.50;99.90;;;;;;5092158;28;20470;-47
2022/11/25 02:08:24;;;;;;;0.87;0.57;;;1.60;99.90;;;;;;5092496;28;20439;-47
2022/11/25 02:10:54;;;;;;;1.00;0.50;;;1.70;99.90;;;;;;5092333;28;20511;-48
2022/11/25 02:13:21;;;;;;;0.90;0.40;;;1.80;99.90;;;;;;5091827;28;20444;-48
2022/11/25 02:15:49;;;;;;;1.20;0.80;;;1.80;99.90;;;;;;5092150;28;20471;-47
2022/11/25 02:18:16;;;;;;;1.37;0.83;;;1.80;99.90;;;;;;5092364;28;20437;-49
2022/11/25 02:20:43;;;;;;;1.67;0.60;;;1.80;99.90;;;;;;5092164;28;20468;-47
2022/11/25 02:23:21;;;;;;;2.07;0.67;;;1.70;99.90;;;;;;5091989;28;20443;-48
2022/11/25 02:25:49;;;;;;;1.00;0.70;;;1.70;99.90;;;;;;5091672;28;20444;-50
2022/11/25 02:28:18;;;;;;;1.23;0.57;;;1.60;99.90;;;;;;5091646;28;20444;-48
2022/11/25 02:30:46;;;;;;;0.80;0.40;;;1.30;99.90;;;;;;5093069;28;20947;-47
2022/11/25 02:33:13;;;;;;;0.90;0.50;;;1.20;99.90;;;;;;5091773;28;20496;-48
2022/11/25 02:35:42;;;;;;;1.67;0.57;;;1.50;99.90;;;;;;5091831;28;20822;-49
2022/11/25 02:38:12;;;;;;;2.30;0.90;;;1.60;99.90;;;;;;5091874;28;20532;-48
2022/11/25 02:40:44;;;;;;;1.30;0.70;;;1.70;99.90;;;;;;5091913;28;20459;-48
2022/11/25 02:43:13;;;;;;;3.73;3.20;;;1.70;99.90;;;;;;5091691;28;20476;-48
2022/11/25 02:45:55;;;;;;;2.53;2.23;;;1.60;99.90;;;;;;5091605;28;20447;-48
2022/11/25 02:48:22;;;;;;;1.93;1.33;;;1.50;99.90;;;;;;5091680;28;20875;-47
2022/11/25 02:50:49;;;;;;;3.50;1.20;;;1.30;99.90;;;;;;5091373;28;20463;-50
2022/11/25 02:53:16;;;;;;;0.80;0.53;;;1.40;99.90;;;;;;5091587;28;20444;-47
2022/11/25 02:55:43;;;;;;;1.20;0.90;;;1.40;99.90;;;;;;5091364;28;20486;-50
2022/11/25 02:58:12;;;;;;;1.50;1.00;;;1.40;99.90;;;;;;5092013;28;20451;-47
2022/11/25 03:00:39;;;;;;;1.07;0.67;;;1.60;99.90;;;;;;5091439;28;20460;-47
2022/11/25 03:03:06;;;;;;;1.03;0.90;;;1.60;99.90;;;;;;5091289;28;20470;-47
2022/11/25 03:05:33;;;;;;;1.00;0.50;;;1.80;99.90;;;;;;5091141;28;20527;-48
2022/11/25 03:08:00;;;;;;;1.13;0.63;;;1.80;99.90;;;;;;5091636;28;20440;-47
2022/11/25 03:10:27;;;;;;;0.90;0.67;;;1.70;99.90;;;;;;5091420;28;20526;-48
2022/11/25 03:12:54;;;;;;;1.83;0.70;;;1.60;99.90;;;;;;5091144;28;20450;-47
2022/11/25 03:15:23;;;;;;;1.07;0.60;;;1.60;99.90;;;;;;5091325;28;20471;-48
2022/11/25 03:17:50;;;;;;;1.30;0.60;;;1.60;99.90;;;;;;5091339;28;20448;-48
2022/11/25 03:20:17;;;;;;;1.27;0.67;;;1.70;99.90;;;;;;5091396;28;20866;-48
2022/11/25 03:22:44;;;;;;;1.80;0.57;;;1.70;99.90;;;;;;5091430;28;20489;-48
2022/11/25 03:25:12;;;;;;;1.00;0.70;;;1.70;99.90;;;;;;5091108;28;20872;-47
2022/11/25 03:27:40;;;;;;;2.00;1.20;;;1.70;99.90;;;;;;5091295;28;20861;-47
2022/11/25 03:30:10;;;;;;;1.37;1.07;;;1.70;99.90;;;;;;5091030;28;20454;-48
2022/11/25 03:32:38;;;;;;;1.20;1.10;;;1.60;99.90;;;;;;5090939;28;20467;-48
2022/11/25 03:35:06;;;;;;;1.83;1.20;;;1.60;99.90;;;;;;5090851;28;20486;-47
2022/11/25 03:37:33;;;;;;;1.90;1.67;;;1.60;99.90;;;;;;5090939;28;20435;-48
2022/11/25 03:40:00;;;;;;;1.00;0.77;;;1.60;99.90;;;;;;5091180;28;20535;-46
2022/11/25 03:42:27;;;;;;;1.50;0.97;;;1.40;99.90;;;;;;5094857;28;20506;-48
2022/11/25 03:44:53;;;;;;;1.67;0.90;;;1.30;99.90;;;;;;5095027;28;20450;-47
2022/11/25 03:47:20;;;;;;;1.30;0.77;;;1.50;99.90;;;;;;5095239;28;20773;-48
2022/11/25 03:49:48;;;;;;;1.43;0.47;;;1.60;99.90;;;;;;5094791;28;20782;-48
2022/11/25 03:52:15;;;;;;;1.30;0.67;;;1.50;99.90;;;;;;5094856;28;20980;-47
2022/11/25 03:54:43;;;;;;;0.80;0.50;;;1.60;99.90;;;;;;5094674;28;20944;-48
2022/11/25 03:57:09;;;;;;;1.50;0.70;;;1.70;99.90;;;;;;5094661;28;20471;-49
2022/11/25 03:59:36;;;;;;;22.30;13.80;;;1.80;99.90;;;;;;5094802;28;20440;-47
2022/11/25 04:02:03;;;;;;;9.40;6.87;;;1.70;99.90;;;;;;5095209;28;20471;-47
2022/11/25 04:04:30;;;;;;;2.00;1.50;;;1.60;99.90;;;;;;5094406;28;20535;-47
2022/11/25 04:06:58;;;;;;;4.00;1.60;;;1.10;99.90;;;;;;5094946;28;20435;-48
2022/11/25 04:09:25;;;;;;;1.77;1.07;;;0.90;99.90;;;;;;5094552;28;20451;-48
2022/11/25 04:14:45;;;;;;;6.60;1.13;;;1.30;99.90;;;;;;5045810;28;20423;-48
2022/11/25 04:17:12;;;;;;;0.80;0.50;;;1.50;99.90;;;;;;5094542;28;20448;-47
2022/11/25 04:19:39;;;;;;;0.80;0.40;;;1.40;99.90;;;;;;5094156;28;20446;-48
2022/11/25 04:22:08;;;;;;;1.03;0.50;;;1.60;99.90;;;;;;5094326;28;20455;-47
2022/11/25 04:24:35;;;;;;;1.37;0.50;;;1.50;99.90;;;;;;5094209;28;20523;-47
2022/11/25 04:27:02;;;;;;;0.80;0.53;;;1.60;99.90;;;;;;5093743;28;20949;-48
2022/11/25 04:29:29;;;;;;;1.67;0.77;;;1.70;99.90;;;;;;5094458;28;20987;-48
2022/11/25 04:31:56;;;;;;;1.10;1.00;;;1.80;99.90;;;;;;5094036;28;20474;-48
2022/11/25 04:34:23;;;;;;;1.77;1.30;;;1.70;99.90;;;;;;5093613;28;20448;-48
2022/11/25 04:36:49;;;;;;;1.67;0.90;;;1.40;99.90;;;;;;5094055;28;20483;-48
2022/11/25 04:39:18;;;;;;;1.30;1.10;;;1.50;99.90;;;;;;5093891;28;20436;-48
2022/11/25 04:41:44;;;;;;;2.60;1.50;;;1.30;99.90;;;;;;5093844;28;20459;-47
2022/11/25 04:44:11;;;;;;;1.30;1.03;;;1.20;99.90;;;;;;5093853;28;20526;-48
2022/11/25 04:46:41;;;;;;;1.00;0.70;;;1.10;99.90;;;;;;5093957;28;20527;-49
2022/11/25 04:49:08;;;;;;;1.47;1.07;;;1.30;99.90;;;;;;5093685;28;20482;-48
2022/11/25 04:51:35;;;;;;;0.93;0.70;;;1.40;99.90;;;;;;5093754;28;20456;-47
2022/11/25 04:54:02;;;;;;;1.20;0.63;;;1.50;99.90;;;;;;5093854;28;20536;-48
2022/11/25 04:56:30;;;;;;;1.10;0.80;;;1.50;99.90;;;;;;5093573;28;20822;-47
2022/11/25 05:01:41;;;;;;;2.40;1.30;;;1.20;99.90;;;;;;5093477;28;20570;-47
2022/11/25 05:04:08;;;;;;;1.97;0.93;;;1.30;99.90;;;;;;5093301;28;20450;-48
2022/11/25 05:06:34;;;;;;;1.43;1.07;;;1.40;99.90;;;;;;5093574;28;20439;-48
2022/11/25 05:09:03;;;;;;;1.83;0.93;;;1.60;99.90;;;;;;5093490;28;20444;-47
2022/11/25 05:11:31;;;;;;;3.73;2.60;;;1.50;99.90;;;;;;5093222;28;20470;-49
2022/11/25 05:13:58;;;;;;;5.00;3.90;;;1.30;99.90;;;;;;5092919;28;20949;-49
2022/11/25 05:16:25;;;;;;;3.10;2.77;;;1.10;99.90;;;;;;5093633;28;20572;-47
2022/11/25 05:18:52;;;;;;;3.10;2.80;;;0.90;99.90;;;;;;5093287;28;20861;-47
2022/11/25 05:21:19;;;;;;;3.90;3.50;;;0.50;99.90;;;;;;5093099;28;20468;-47
2022/11/25 05:23:45;;;;;;;6.00;3.90;;;0.50;99.90;;;;;;5093305;28;20435;-48
2022/11/25 05:26:12;;;;;;;4.03;3.43;;;0.50;99.90;;;;;;5092514;28;20450;-48
2022/11/25 05:28:40;;;;;;;3.83;3.20;;;0.40;99.90;;;;;;5093035;28;20440;-47
2022/11/25 05:31:07;;;;;;;4.10;3.70;;;0.60;99.90;;;;;;5092735;28;20471;-48
2022/11/25 05:33:34;;;;;;;5.80;3.87;;;0.70;99.90;;;;;;5092557;28;20527;-48
2022/11/25 05:36:02;;;;;;;3.80;3.20;;;0.60;99.90;;;;;;5092995;28;20761;-49
2022/11/25 05:38:29;;;;;;;3.90;3.03;;;0.60;99.90;;;;;;5092598;28;20819;-47
2022/11/25 05:41:01;;;;;;;1.90;1.70;;;0.80;99.90;;;;;;5092965;28;20466;-48
2022/11/25 05:43:28;;;;;;;2.67;2.47;;;1.00;99.90;;;;;;5092887;28;20462;-51
2022/11/25 05:45:56;;;;;;;2.70;2.30;;;1.00;99.90;;;;;;5092531;28;20444;-48
2022/11/25 05:48:23;;;;;;;3.70;2.90;;;1.10;99.90;;;;;;5092825;28;20527;-47
2022/11/25 05:50:50;;;;;;;3.60;2.77;;;1.10;99.90;;;;;;5092674;28;20470;-49
2022/11/25 05:53:17;;;;;;;2.93;2.60;;;1.10;99.90;;;;;;5092494;28;20778;-48
2022/11/25 05:55:43;;;;;;;2.70;2.50;;;1.00;99.90;;;;;;5092173;28;20478;-48
2022/11/25 05:58:10;;;;;;;4.07;2.70;;;1.10;99.90;;;;;;5092572;28;20614;-47
2022/11/25 06:00:37;;;;;;;3.63;2.77;;;0.90;99.90;;;;;;5092374;28;20462;-48
2022/11/25 06:03:05;;;;;;;4.20;3.10;;;1.10;99.90;;;;;;5091578;28;20446;-47
2022/11/25 06:05:34;;;;;;;8.80;7.07;;;1.10;99.90;;;;;;5092153;28;20805;-47
2022/11/25 06:08:02;;;;;;;3.40;3.10;;;1.10;99.90;;;;;;5092389;28;20517;-50
2022/11/25 06:10:28;;;;;;;4.50;4.00;;;1.10;99.90;;;;;;5092341;28;20448;-47
2022/11/25 06:12:55;;;;;;;4.10;3.60;;;0.60;99.90;;;;;;5092180;28;20439;-47
2022/11/25 06:15:22;;;;;;;5.50;5.00;;;0.40;99.90;;;;;;5092203;28;20440;-49
2022/11/25 06:17:49;;;;;;;6.57;5.10;;;0.30;99.90;;;;;;5091976;28;20439;-47
2022/11/25 06:20:17;;;;;;;6.10;5.50;;;0.50;99.90;;;;;;5092132;28;20538;-47
2022/11/25 06:22:44;;;;;;;6.03;4.97;;;0.70;99.90;;;;;;5092326;28;20868;-50
2022/11/25 06:25:11;;;;;;;8.37;5.83;;;0.50;99.90;;;;;;5091783;28;20530;-47
2022/11/25 06:27:38;;;;;;;6.80;5.03;;;0.50;99.90;;;;;;5091844;28;20432;-48
2022/11/25 06:30:06;;;;;;;4.87;3.63;;;0.60;99.90;;;;;;5091870;28;20531;-50
2022/11/25 06:32:33;;;;;;;25.97;22.27;;;0.70;99.90;;;;;;5091961;28;20564;-49
2022/11/25 06:35:00;;;;;;;22.97;15.23;;;0.80;99.90;;;;;;5091490;28;20446;-47
2022/11/25 06:37:28;;;;;;;40.43;29.10;;;0.90;99.90;;;;;;5091812;28;20476;-47
2022/11/25 06:39:55;;;;;;;9.50;8.20;;;0.90;99.90;;;;;;5091876;28;20544;-47
2022/11/25 06:42:22;;;;;;;9.23;6.27;;;1.00;99.90;;;;;;5091680;28;20464;-48
2022/11/25 06:44:48;;;;;;;2.77;2.57;;;1.10;99.90;;;;;;5091446;28;20446;-47
2022/11/25 06:47:15;;;;;;;2.73;2.30;;;1.00;99.90;;;;;;5091724;28;20876;-47
2022/11/25 06:49:42;;;;;;;3.80;2.93;;;1.00;99.90;;;;;;5091867;28;20444;-47
2022/11/25 06:52:09;;;;;;;5.10;2.50;;;1.10;99.90;;;;;;5091661;28;20460;-48
2022/11/25 06:54:39;;;;;;;3.63;2.70;;;1.20;99.90;;;;;;5091379;28;20439;-47
2022/11/25 06:57:07;;;;;;;2.73;2.20;;;1.20;99.90;;;;;;5091687;28;20927;-49
2022/11/25 06:59:34;;;;;;;3.77;1.60;;;1.20;99.90;;;;;;5091403;28;20528;-48
2022/11/25 07:02:00;;;;;;;1.80;1.13;;;1.10;99.90;;;;;;5091387;28;20535;-47
2022/11/25 07:04:27;;;;;;;2.43;2.23;;;1.10;99.90;;;;;;5091145;28;20440;-47
2022/11/25 07:06:54;;;;;;;2.47;2.27;;;0.90;99.90;;;;;;5091218;28;20526;-48
2022/11/25 07:09:21;;;;;;;7.33;6.20;;;1.10;99.90;;;;;;5091486;28;20553;-48
2022/11/25 07:11:49;;;;;;;12.00;7.37;;;1.10;99.90;;;;;;5090989;28;20463;-47
2022/11/25 07:14:17;;;;;;;7.93;7.07;;;1.10;99.90;;;;;;5091235;28;20446;-47
2022/11/25 07:16:46;;;;;;;7.00;6.40;;;1.20;99.90;;;;;;5094152;28;20562;-48
2022/11/25 07:19:14;;;;;;;5.33;4.30;;;1.40;99.90;;;;;;5095631;28;20807;-48
2022/11/25 07:21:44;;;;;;;5.23;4.73;;;1.40;99.90;;;;;;5095330;28;20468;-47
2022/11/25 07:24:13;;;;;;;4.77;4.37;;;1.50;99.90;;;;;;5095197;28;20819;-47
2022/11/25 07:26:41;;;;;;;10.50;8.53;;;1.60;99.90;;;;;;5095220;28;20535;-47
2022/11/25 07:29:13;;;;;;;11.87;10.67;;;1.50;99.90;;;;;;5095342;28;20447;-47
2022/11/25 07:31:42;;;;;;;7.07;6.37;;;1.50;99.90;;;;;;5095403;28;20559;-48
2022/11/25 07:34:12;;;;;;;5.10;3.87;;;1.50;99.90;;;;;;5094860;28;20518;-49
2022/11/25 07:36:41;;;;;;;6.70;4.10;;;1.60;99.90;;;;;;5095347;28;20503;-47
2022/11/25 07:39:13;;;;;;;6.33;5.17;;;1.60;99.90;;;;;;5095499;28;20519;-48
2022/11/25 07:41:40;;;;;;;4.20;3.80;;;1.50;99.90;;;;;;5095021;28;20546;-48
2022/11/25 07:44:12;;;;;;;6.90;6.07;;;1.60;99.90;;;;;;5094892;28;20597;-49
2022/11/25 07:46:41;;;;;;;6.57;4.73;;;1.70;99.90;;;;;;5095135;28;20447;-48
2022/11/25 07:49:12;;;;;;;5.27;4.77;;;1.70;99.90;;;;;;5095232;28;20518;-48
2022/11/25 07:51:41;;;;;;;3.43;2.60;;;1.60;99.90;;;;;;5095113;28;20464;-48
2022/11/25 07:54:10;;;;;;;2.93;2.63;;;1.60;99.90;;;;;;5094510;28;21015;-48
2022/11/25 07:56:38;;;;;;;2.63;2.40;;;1.60;99.90;;;;;;5094861;28;20478;-48
2022/11/25 07:59:10;;;;;;;3.67;2.97;;;1.60;99.90;;;;;;5094650;28;20547;-48
2022/11/25 08:01:37;;;;;;;3.20;2.90;;;1.60;99.90;;;;;;5094912;28;20542;-50
2022/11/25 08:04:04;;;;;;;3.40;2.23;;;1.60;99.90;;;;;;5094607;28;20455;-48
2022/11/25 08:06:31;;;;;;;3.10;2.13;;;1.70;99.90;;;;;;5094940;28;20451;-48
2022/11/25 08:08:58;;;;;;;5.43;4.47;;;1.70;99.90;;;;;;5094563;28;20443;-47
2022/11/25 08:11:29;;;;;;;4.67;4.17;;;1.80;99.90;;;;;;5094278;28;20529;-48
2022/11/25 08:13:57;;;;;;;5.40;3.80;;;1.90;99.90;;;;;;5094159;28;20439;-47
2022/11/25 08:16:27;;;;;;;3.90;3.50;;;1.90;99.90;;;;;;5094603;28;20472;-48
2022/11/25 08:18:54;;;;;;;11.60;6.80;;;1.80;99.90;;;;;;5094560;28;20536;-48
2022/11/25 08:21:21;;;;;;;9.60;6.33;;;1.90;99.90;;;;;;5094624;28;20551;-47
2022/11/25 08:23:48;;;;;;;6.00;5.13;;;2.00;99.90;;;;;;5094120;28;20440;-50
2022/11/25 08:26:17;;;;;;;9.57;6.53;;;2.00;99.90;;;;;;5093301;28;20487;-48
2022/11/25 08:28:45;;;;;;;10.10;8.57;;;1.90;99.90;;;;;;5094168;28;20957;-48
2022/11/25 08:31:14;;;;;;;9.93;6.80;;;1.90;99.90;;;;;;5095337;28;20472;-49
2022/11/25 08:33:43;;;;;;;12.83;6.23;;;2.00;99.90;;;;;;5093750;28;20481;-48
2022/11/25 08:36:11;;;;;;;7.93;4.60;;;2.10;99.90;;;;;;5094075;28;20547;-47
2022/11/25 08:38:39;;;;;;;6.57;3.70;;;2.10;99.90;;;;;;5094411;28;20829;-47
2022/11/25 08:41:10;;;;;;;7.97;6.70;;;2.10;99.90;;;;;;5093805;28;21078;-48
2022/11/25 08:43:37;;;;;;;8.20;6.90;;;2.10;99.90;;;;;;5093755;28;20877;-47
2022/11/25 08:46:08;;;;;;;9.33;5.97;;;2.10;99.90;;;;;;5093865;28;20932;-48
2022/11/25 08:48:35;;;;;;;8.40;6.43;;;2.20;99.90;;;;;;5093732;28;20531;-51
2022/11/25 08:51:09;;;;;;;12.27;10.20;;;2.30;99.90;;;;;;5093815;28;20555;-48
2022/11/25 08:53:38;;;;;;;11.80;10.60;;;2.30;99.90;;;;;;5093759;28;20444;-48
2022/11/25 08:56:05;;;;;;;14.30;10.47;;;2.10;99.90;;;;;;5093665;28;20961;-48
2022/11/25 08:58:32;;;;;;;10.47;9.33;;;1.80;99.90;;;;;;5093182;28;20867;-45
2022/11/25 09:00:59;;;;;;;12.37;11.17;;;1.70;99.90;;;;;;5093489;28;20567;-48
2022/11/25 09:03:26;;;;;;;11.43;10.23;;;1.80;99.90;;;;;;5093159;28;20562;-48
2022/11/25 09:05:54;;;;;;;9.33;7.07;;;1.90;99.90;;;;;;5093877;28;20462;-47
2022/11/25 09:08:22;;;;;;;9.20;4.23;;;1.90;99.90;;;;;;5093682;28;20519;-51
2022/11/25 09:10:49;;;;;;;5.90;4.47;;;1.90;99.90;;;;;;5093648;28;20825;-48
2022/11/25 09:13:16;;;;;;;7.17;6.30;;;1.60;99.90;;;;;;5093438;28;20517;-47
2022/11/25 09:15:43;;;;;;;14.90;11.77;;;2.00;99.90;;;;;;5093004;28;20436;-47
2022/11/25 09:18:11;;;;;;;20.17;15.13;;;2.00;99.90;;;;;;5093271;28;20476;-47
2022/11/25 09:20:40;;;;;;;19.40;17.40;;;1.80;99.90;;;;;;5093377;28;20546;-48
2022/11/25 09:23:08;;;;;;;11.50;10.00;;;1.80;99.90;;;;;;5093139;28;20522;-47
2022/11/25 09:25:37;;;;;;;16.63;11.43;;;2.00;99.90;;;;;;5093061;28;20975;-46
2022/11/25 09:28:05;;;;;;;7.13;4.77;;;2.10;99.90;;;;;;5092591;28;20519;-47
2022/11/25 09:30:32;;;;;;;27.00;16.63;;;2.20;99.90;;;;;;5092581;28;20526;-47
2022/11/25 09:32:59;;;;;;;12.90;8.70;;;2.20;99.90;;;;;;5092620;28;20526;-47
2022/11/25 09:35:26;;;;;;;12.50;6.17;;;2.20;99.90;;;;;;5092748;28;20444;-47
2022/11/25 09:37:53;;;;;;;93.23;42.80;;;2.30;99.90;;;;;;5092256;28;20881;-47
2022/11/25 09:40:27;;;;;;;166.90;69.73;;;2.40;99.90;;;;;;5092482;28;20446;-47
2022/11/25 09:48:48;;;;;;;4.47;3.00;;;2.70;99.90;;;;;;5092755;28;20439;-49
2022/11/25 09:51:20;;;;;;;4.20;3.27;;;2.80;99.90;;;;;;5092741;28;20542;-47
2022/11/25 09:53:52;;;;;;;8.57;5.37;;;2.90;99.90;;;;;;5092291;28;20826;-49
2022/11/25 09:56:32;;;;;;;8.47;7.67;;;3.10;99.90;;;;;;5092637;28;20448;-47
2022/11/25 09:59:05;;;;;;;7.67;5.90;;;3.20;99.90;;;;;;5092506;28;20433;-47
2022/11/25 10:01:44;;;;;;;2.80;2.60;;;3.10;99.90;;;;;;5091998;28;21063;-48
2022/11/25 10:04:15;;;;;;;1.40;1.27;;;3.10;99.90;;;;;;5092268;28;20543;-47
2022/11/25 10:06:48;;;;;;;1.67;1.50;;;3.20;99.90;;;;;;5092859;28;20868;-47
2022/11/25 10:09:19;;;;;;;1.60;1.47;;;3.50;99.90;;;;;;5092140;28;20428;-47
2022/11/25 10:11:50;;;;;;;1.40;1.10;;;4.30;99.90;;;;;;5092321;28;20544;-48
2022/11/25 10:14:27;;;;;;;1.77;1.10;;;4.10;99.90;;;;;;5092149;28;20445;-47
2022/11/25 10:17:01;;;;;;;1.70;1.53;;;3.70;99.90;;;;;;5092008;28;20559;-47
2022/11/25 10:19:42;;;;;;;22.67;3.50;;;3.80;99.90;;;;;;5092053;28;20440;-47
2022/11/25 10:22:21;;;;;;;5.80;2.77;;;4.10;99.90;;;;;;5091853;28;20560;-47
2022/11/25 10:24:49;;;;;;;10.10;5.63;;;3.90;99.90;;;;;;5091864;28;20535;-48
2022/11/25 10:27:22;;;;;;;18.93;6.67;;;3.80;99.90;;;;;;5092024;28;20432;-50
2022/11/25 10:30:01;;;;;;;4.33;2.40;;;3.80;99.90;;;;;;5091949;28;20519;-47
2022/11/25 10:32:37;;;;;;;2.40;1.20;;;3.90;99.90;;;;;;5091853;28;20503;-49
2022/11/25 10:35:12;;;;;;;6.07;3.60;;;3.90;99.90;;;;;;5091660;28;20446;-47
2022/11/25 10:37:43;;;;;;;4.97;2.97;;;4.00;99.90;;;;;;5091699;28;20476;-47
2022/11/25 10:40:15;;;;;;;8.50;4.20;;;4.00;99.90;;;;;;5091724;28;20440;-47
2022/11/25 10:42:42;;;;;;;3.93;2.07;;;4.10;99.90;;;;;;5091976;28;20517;-47
2022/11/25 10:45:12;;;;;;;4.13;1.50;;;4.10;99.90;;;;;;5091687;28;20524;-47
2022/11/25 10:47:59;;;;;;;3.63;1.37;;;4.10;99.90;;;;;;5091688;28;20435;-48
2022/11/25 10:50:33;;;;;;;7.80;1.80;;;4.10;99.90;;;;;;5091368;28;20531;-47
2022/11/25 10:53:04;;;;;;;2.57;1.83;;;4.20;99.90;;;;;;5091204;28;20444;-47
2022/11/25 10:55:32;;;;;;;4.70;2.13;;;4.20;99.90;;;;;;5091780;28;20445;-50
2022/11/25 10:58:19;;;;;;;2.03;1.50;;;4.20;99.90;;;;;;5091833;28;20478;-47
2022/11/25 11:00:47;;;;;;;1.80;1.33;;;4.20;99.90;;;;;;5091327;28;20460;-49
2022/11/25 11:03:16;;;;;;;2.80;1.67;;;4.10;99.90;;;;;;5091190;28;20528;-50
2022/11/25 11:05:48;;;;;;;1.63;1.33;;;4.10;99.90;;;;;;5091522;28;20856;-47
2022/11/25 11:08:18;;;;;;;7.57;4.23;;;4.00;99.90;;;;;;5091190;28;20511;-49
2022/11/25 11:10:46;;;;;;;2.33;2.10;;;4.20;99.90;;;;;;5091298;28;20460;-48
2022/11/25 11:13:23;;;;;;;2.23;1.43;;;4.30;99.90;;;;;;5091092;28;20532;-48
2022/11/25 11:15:54;;;;;;;2.07;1.57;;;4.20;99.90;;;;;;5091428;28;21105;-48
2022/11/25 11:18:27;;;;;;;2.10;1.77;;;4.20;99.90;;;;;;5091634;28;20476;-47
2022/11/25 11:20:55;;;;;;;1.40;1.00;;;4.20;99.90;;;;;;5091245;28;20973;-47
2022/11/25 11:23:23;;;;;;;1.73;1.43;;;4.20;99.90;;;;;;5090983;28;20934;-46
2022/11/25 11:25:59;;;;;;;2.20;1.87;;;4.20;99.90;;;;;;5091143;28;20441;-47
2022/11/25 11:28:31;;;;;;;1.97;1.50;;;4.20;99.90;;;;;;5091160;28;20436;-47
2022/11/25 11:31:01;;;;;;;2.17;1.60;;;4.30;99.90;;;;;;5091013;28;20472;-47
2022/11/25 11:33:33;;;;;;;5.67;2.03;;;4.40;99.90;;;;;;5091157;28;20452;-47
2022/11/25 11:36:25;;;;;;;2.33;2.03;;;4.40;99.90;;;;;;5091341;28;20448;-47
2022/11/25 11:38:55;;;;;;;2.50;2.10;;;4.50;99.90;;;;;;5090552;28;20923;-49
2022/11/25 11:41:35;;;;;;;3.63;1.63;;;4.50;99.90;;;;;;5089577;28;20908;-47
2022/11/25 11:44:09;;;;;;;2.23;1.80;;;4.60;99.90;;;;;;5089667;28;20531;-47
2022/11/25 11:46:51;;;;;;;3.60;2.20;;;4.70;99.90;;;;;;5090414;28;20446;-47
2022/11/25 11:49:44;;;;;;;2.27;2.00;;;4.70;99.90;;;;;;5090960;28;20870;-47
2022/11/25 11:52:18;;;;;;;2.70;1.90;;;4.80;99.90;;;;;;5090807;28;20461;-47
2022/11/25 11:54:50;;;;;;;2.33;2.00;;;4.90;99.90;;;;;;5090801;28;20535;-48
2022/11/25 11:57:30;;;;;;;6.70;2.70;;;5.00;99.90;;;;;;5090606;28;20446;-49
2022/11/25 12:00:01;;;;;;;5.37;2.90;;;5.10;99.90;;;;;;5090462;28;20528;-47
2022/11/25 12:02:42;;;;;;;6.33;2.83;;;5.00;99.90;;;;;;5091403;28;20755;-47
2022/11/25 12:05:17;;;;;;;4.23;2.10;;;5.00;99.90;;;;;;5093285;28;20469;-47
2022/11/25 12:07:52;;;;;;;2.97;2.30;;;4.90;99.90;;;;;;5093228;28;20437;-49
2022/11/25 12:10:25;;;;;;;2.50;2.20;;;4.90;99.90;;;;;;5093219;28;20941;-47
2022/11/25 12:12:59;;;;;;;2.93;1.77;;;5.00;99.90;;;;;;5092904;28;20440;-46
2022/11/25 12:15:37;;;;;;;2.23;2.00;;;5.00;99.90;;;;;;5093573;28;20524;-49
2022/11/25 12:18:18;;;;;;;2.30;1.60;;;5.00;99.90;;;;;;5094588;28;21277;-47
2022/11/25 12:20:52;;;;;;;3.50;1.70;;;5.10;99.90;;;;;;5094424;28;20468;-48
2022/11/25 12:23:29;;;;;;;2.43;2.07;;;5.30;99.90;;;;;;5093940;28;20524;-49
2022/11/25 12:26:02;;;;;;;3.50;2.33;;;5.40;99.90;;;;;;5094774;28;20534;-47
2022/11/25 12:28:35;;;;;;;2.43;1.70;;;6.00;99.90;;;;;;5094330;28;20438;-50
2022/11/25 12:31:08;;;;;;;2.13;1.70;;;5.80;99.90;;;;;;5094224;28;20478;-48
2022/11/25 12:33:46;;;;;;;2.00;1.60;;;5.90;99.90;;;;;;5094191;28;20803;-47
2022/11/25 12:36:17;;;;;;;3.53;2.17;;;6.90;99.90;;;;;;5094174;28;20529;-48
2022/11/25 12:38:51;;;;;;;3.50;3.20;;;7.60;99.90;;;;;;5094403;28;20570;-48
2022/11/25 12:41:24;;;;;;;9.17;5.87;;;7.60;99.90;;;;;;5093965;28;20541;-47
2022/11/25 12:43:59;;;;;;;12.93;8.30;;;7.90;99.90;;;;;;5093947;28;20538;-48
2022/11/25 12:46:33;;;;;;;8.27;4.20;;;7.80;99.90;;;;;;5094056;28;20452;-47
2022/11/25 12:49:03;;;;;;;4.37;2.40;;;8.10;99.90;;;;;;5094005;28;20445;-47
2022/11/25 12:51:46;;;;;;;10.00;7.60;;;8.20;99.90;;;;;;5093984;28;20512;-48
2022/11/25 12:54:25;;;;;;;8.73;3.90;;;8.70;99.90;;;;;;5093782;28;20533;-47
2022/11/25 12:57:14;;;;;;;9.23;2.90;;;8.30;99.90;;;;;;5093453;28;20459;-48
2022/11/25 12:59:59;;;;;;;1.90;1.40;;;8.10;99.90;;;;;;5093528;28;20671;-47
2022/11/25 13:02:44;;;;;;;2.90;2.00;;;8.20;99.90;;;;;;5093905;28;20998;-47
2022/11/25 13:05:35;;;;;;;2.50;1.43;;;8.20;99.90;;;;;;5093351;28;20923;-47
2022/11/25 13:08:11;;;;;;;2.13;1.60;;;8.40;99.90;;;;;;5093635;28;20624;-50
2022/11/25 13:10:55;;;;;;;5.00;1.50;;;8.30;99.90;;;;;;5093127;28;20461;-49
2022/11/25 13:13:42;;;;;;;1.80;1.40;;;8.30;99.90;;;;;;5093377;28;20446;-47
2022/11/25 13:16:09;;;;;;;1.73;1.17;;;8.00;99.90;;;;;;5093639;28;20854;-47
2022/11/25 13:18:40;;;;;;;1.90;1.30;;;8.40;99.90;;;;;;5093162;28;20538;-51
2022/11/25 13:21:10;;;;;;;3.33;1.30;;;8.10;99.90;;;;;;5093214;28;20497;-48
2022/11/25 13:23:50;;;;;;;1.10;0.80;;;8.30;99.90;;;;;;5093139;28;20440;-48
2022/11/25 13:26:48;;;;;;;1.20;0.90;;;8.80;99.90;;;;;;5093289;28;20446;-48